Terminal Aerodrome Forecast
Issued by NWS North Platte, NE

Home | Current Version | Previous Version | Text Only | Print | Product List | Glossary On
Versions: 1 2 3 4 5 6 7 8 9 10 11 12 13 14 15 16 17 18 19 20 21 22 23 24 25 26 27 28 29 30
000
FTUS43 KLBF 060900 AAA
TAFLBF
TAF AMD
KLBF 060905Z 0609/0706 15010KT P6SM OVC015
     FM061200 12010KT 3/4SM -DZ BR OVC003
     FM061400 14012KT 4SM BR OVC008
     FM061600 15012KT P6SM OVC008
     FM061900 16012KT P6SM -SHRA SCT025 OVC050 PROB30 0621/0701 3SM
      +TSRA OVC020CB
     FM070100 20008KT P6SM OVC120=

USA.gov is the U.S. government's official web portal to all federal, state and local government web resources and services.